Terminal Aerodrome Forecast
Issued by NWS Greer, SC

Home | Current Version | Previous Version | Text Only | Print | Product List | Glossary On
Versions: 1 2 3 4 5 6 7 8 9 10 11 12 13 14 15 16 17 18 19 20 21 22
000
FTUS42 KGSP 260902 AAA
TAFCLT
TAF AMD
KCLT 260902Z 2609/2706 08005KT P6SM SCT070
     FM261100 07005KT P6SM BKN020
     FM261200 07006KT 6SM BR BKN007
     FM261400 08006KT P6SM BKN010
     FM261700 10004KT P6SM BKN035
     FM262000 11003KT P6SM SCT040 PROB30 2621/2624 4SM -TSRA
      BKN040CB=

USA.gov is the U.S. government's official web portal to all federal, state and local government web resources and services.